createdAt,value
2022-10-17T00:01:08.229Z,101621.03
2022-10-17T00:03:37.255Z,101621.97
2022-10-17T00:06:08.001Z,101620.75
2022-10-17T00:08:36.398Z,101624.30
2022-10-17T00:11:07.357Z,101626.11
2022-10-17T00:13:35.687Z,101628.59
2022-10-17T00:16:03.562Z,101633.61
2022-10-17T00:18:32.660Z,101637.10
2022-10-17T00:21:00.537Z,101639.35
2022-10-17T00:23:30.420Z,101642.30
2022-10-17T00:26:00.652Z,101647.71
2022-10-17T00:28:28.582Z,101651.36
2022-10-17T00:31:02.505Z,101652.96
2022-10-17T00:33:31.086Z,101662.00
2022-10-17T00:36:17.496Z,101665.20
2022-10-17T00:38:47.720Z,101661.90
2022-10-17T00:41:18.015Z,101663.80
2022-10-17T00:43:53.959Z,101666.05
2022-10-17T00:46:23.413Z,101671.48
2022-10-17T00:48:54.077Z,101668.34
2022-10-17T00:51:27.999Z,101670.48
2022-10-17T00:53:56.503Z,101670.02
2022-10-17T00:56:24.605Z,101668.71
2022-10-17T00:58:52.728Z,101668.42
2022-10-17T01:01:20.928Z,101669.02
2022-10-17T01:03:49.233Z,101667.29
2022-10-17T01:06:17.201Z,101666.24
2022-10-17T01:08:45.995Z,101665.38
2022-10-17T01:11:47.825Z,101665.73
2022-10-17T01:14:28.087Z,101663.00
2022-10-17T01:17:30.545Z,101666.41
2022-10-17T01:20:39.930Z,101664.73
2022-10-17T01:23:43.271Z,101661.94
2022-10-17T01:26:20.233Z,101662.86
2022-10-17T01:29:22.526Z,101662.73
2022-10-17T01:32:34.610Z,101665.91
2022-10-17T01:35:08.517Z,101666.14
2022-10-17T01:37:46.819Z,101666.34
2022-10-17T01:40:36.457Z,101665.84
2022-10-17T01:43:29.743Z,101666.58
2022-10-17T01:46:09.429Z,101665.89
2022-10-17T01:48:41.302Z,101666.80
2022-10-17T01:51:24.477Z,101665.38
2022-10-17T01:53:58.848Z,101663.97
2022-10-17T01:56:30.193Z,101662.24
2022-10-17T01:59:08.186Z,101667.64
2022-10-17T02:01:38.413Z,101667.64
2022-10-17T02:04:09.349Z,101668.02
2022-10-17T02:06:38.196Z,101667.70
2022-10-17T02:09:26.997Z,101668.10
2022-10-17T02:12:13.719Z,101665.19
2022-10-17T02:15:28.733Z,101666.15
2022-10-17T02:18:05.457Z,101665.71
2022-10-17T02:20:40.728Z,101665.00
2022-10-17T02:23:22.466Z,101667.37
2022-10-17T02:25:50.154Z,101667.96
2022-10-17T02:28:30.404Z,101668.41
2022-10-17T02:31:04.528Z,101668.14
2022-10-17T02:33:50.571Z,101668.63
2022-10-17T02:36:24.346Z,101666.83
2022-10-17T02:38:54.755Z,101663.78
2022-10-17T02:41:24.944Z,101665.77
2022-10-17T02:43:55.646Z,101668.09
2022-10-17T02:46:28.217Z,101674.76
2022-10-17T02:49:03.888Z,101676.17
2022-10-17T02:51:53.548Z,101680.02
2022-10-17T02:54:40.201Z,101682.29
2022-10-17T02:57:15.101Z,101679.13
2022-10-17T02:59:46.101Z,101679.63
2022-10-17T03:02:14.729Z,101682.01
2022-10-17T03:04:44.723Z,101685.85
2022-10-17T03:07:13.285Z,101688.98
2022-10-17T03:09:41.549Z,101690.39
2022-10-17T03:12:09.363Z,101690.25
2022-10-17T03:14:37.510Z,101694.61
2022-10-17T03:17:05.874Z,101700.54
2022-10-17T03:19:33.834Z,101700.15
2022-10-17T03:22:01.620Z,101698.06
2022-10-17T03:24:31.483Z,101699.69
2022-10-17T03:26:59.571Z,101702.71
2022-10-17T03:29:27.773Z,101703.39
2022-10-17T03:31:56.233Z,101703.37
2022-10-17T03:34:25.062Z,101704.46
2022-10-17T03:36:53.411Z,101706.06
2022-10-17T03:39:21.748Z,101707.65
2022-10-17T03:41:49.796Z,101710.64
2022-10-17T03:44:17.868Z,101709.79
2022-10-17T03:46:46.120Z,101710.64
2022-10-17T03:49:14.406Z,101710.80
2022-10-17T03:51:42.751Z,101706.83
2022-10-17T03:54:13.591Z,101705.83
2022-10-17T03:56:41.592Z,101712.27
2022-10-17T03:59:16.131Z,101715.25
2022-10-17T04:01:49.941Z,101715.27
2022-10-17T04:04:18.532Z,101718.81
2022-10-17T04:06:46.786Z,101721.81
2022-10-17T04:09:15.103Z,101721.25
2022-10-17T04:12:15.626Z,101722.18
2022-10-17T04:14:44.697Z,101725.56
2022-10-17T04:17:12.723Z,101725.42
2022-10-17T04:19:41.048Z,101729.14
2022-10-17T04:22:09.925Z,101732.39
2022-10-17T04:24:39.218Z,101731.17
2022-10-17T04:27:12.649Z,101730.41
2022-10-17T04:29:44.557Z,101732.73
2022-10-17T04:32:26.222Z,101735.79
2022-10-17T04:35:16.134Z,101737.27
2022-10-17T04:37:47.801Z,101737.16
2022-10-17T04:40:19.359Z,101738.62
2022-10-17T04:42:47.454Z,101739.38
2022-10-17T04:45:17.920Z,101739.21
2022-10-17T04:47:46.772Z,101738.34
2022-10-17T04:50:14.764Z,101742.39
2022-10-17T04:52:42.800Z,101742.09
2022-10-17T04:55:10.968Z,101746.14
2022-10-17T04:57:39.663Z,101745.50
2022-10-17T05:00:16.875Z,101746.39
2022-10-17T05:02:47.717Z,101747.29
2022-10-17T05:05:15.931Z,101748.18
2022-10-17T05:07:44.629Z,101749.23
2022-10-17T05:10:19.069Z,101750.63
2022-10-17T05:12:49.219Z,101755.15
2022-10-17T05:15:18.906Z,101755.31
2022-10-17T05:17:47.223Z,101758.11
2022-10-17T05:20:15.509Z,101761.31
2022-10-17T05:22:43.954Z,101759.96
2022-10-17T05:25:12.494Z,101762.41
2022-10-17T05:27:40.308Z,101766.07
2022-10-17T05:30:09.884Z,101771.30
2022-10-17T05:32:38.802Z,101773.23
2022-10-17T05:35:07.323Z,101777.16
2022-10-17T05:37:35.373Z,101784.23
2022-10-17T05:40:04.414Z,101781.92
2022-10-17T05:42:33.234Z,101781.79
2022-10-17T05:45:01.211Z,101782.83
2022-10-17T05:47:29.550Z,101785.95
2022-10-17T05:49:57.529Z,101788.73
2022-10-17T05:52:31.388Z,101795.63
2022-10-17T05:55:12.287Z,101797.28
2022-10-17T05:57:40.830Z,101799.81
2022-10-17T06:00:14.369Z,101803.54
2022-10-17T06:02:46.211Z,101813.20
2022-10-17T06:05:16.702Z,101816.73
2022-10-17T06:07:45.249Z,101822.04
2022-10-17T06:10:16.628Z,101827.89
2022-10-17T06:12:45.678Z,101830.07
2022-10-17T06:15:13.771Z,101833.80
2022-10-17T06:17:44.296Z,101838.41
2022-10-17T06:20:12.457Z,101838.62
2022-10-17T06:22:40.562Z,101840.80
2022-10-17T06:25:15.266Z,101841.73
2022-10-17T06:27:43.330Z,101847.21
2022-10-17T06:30:12.259Z,101850.98
2022-10-17T06:32:40.326Z,101855.04
2022-10-17T06:35:08.693Z,101858.92
2022-10-17T06:37:38.500Z,101861.73
2022-10-17T06:40:12.271Z,101864.59
2022-10-17T06:42:41.699Z,101868.14
2022-10-17T06:45:25.222Z,101872.70
2022-10-17T06:47:58.218Z,101876.37
2022-10-17T06:50:42.314Z,101878.44
2022-10-17T06:53:20.058Z,101880.66
2022-10-17T06:56:10.283Z,101883.77
2022-10-17T06:58:48.131Z,101884.28
2022-10-17T07:01:29.039Z,101888.79
2022-10-17T07:04:00.579Z,101891.04
2022-10-17T07:06:30.048Z,101891.38
2022-10-17T07:09:02.722Z,101894.33
2022-10-17T07:11:30.980Z,101894.83
2022-10-17T07:13:59.055Z,101897.77
2022-10-17T07:16:27.733Z,101902.68
2022-10-17T07:19:03.830Z,101905.75
2022-10-17T07:21:39.013Z,101910.09
2022-10-17T07:24:09.888Z,101910.10
2022-10-17T07:26:39.104Z,101909.39
2022-10-17T07:29:07.931Z,101913.38
2022-10-17T07:31:48.785Z,101915.95
2022-10-17T07:34:16.695Z,101919.88
2022-10-17T07:36:46.130Z,101917.46
2022-10-17T07:39:15.595Z,101918.66
2022-10-17T07:41:43.563Z,101917.76
2022-10-17T07:44:11.737Z,101915.77
2022-10-17T07:46:46.120Z,101913.59
2022-10-17T07:49:14.287Z,101918.27
2022-10-17T07:51:43.014Z,101920.91
2022-10-17T07:54:10.865Z,101921.39
2022-10-17T07:56:38.724Z,101922.54
2022-10-17T07:59:09.333Z,101924.76
2022-10-17T08:01:38.366Z,101925.62
2022-10-17T08:04:06.209Z,101930.33
2022-10-17T08:06:34.158Z,101932.56
2022-10-17T08:09:02.079Z,101929.41
2022-10-17T08:11:30.089Z,101929.03
2022-10-17T08:13:57.873Z,101926.33
2022-10-17T08:16:25.758Z,101919.96
2022-10-17T08:18:54.108Z,101923.62
2022-10-17T08:21:22.425Z,101925.93
2022-10-17T08:23:50.646Z,101925.58
2022-10-17T08:26:20.248Z,101925.65
2022-10-17T08:28:48.524Z,101926.04
2022-10-17T08:31:18.941Z,101928.34
2022-10-17T08:33:48.681Z,101927.64
2022-10-17T08:36:19.367Z,101924.93
2022-10-17T08:38:52.462Z,101924.14
2022-10-17T08:41:27.455Z,101922.84
2022-10-17T08:44:11.756Z,101922.14
2022-10-17T08:46:42.683Z,101920.54
2022-10-17T08:49:24.560Z,101917.98
2022-10-17T08:52:03.021Z,101920.55
2022-10-17T08:54:41.964Z,101919.55
2022-10-17T08:57:13.803Z,101916.69
2022-10-17T08:59:43.823Z,101915.90
2022-10-17T09:02:52.066Z,101919.04
2022-10-17T09:05:47.072Z,101925.95
2022-10-17T09:08:29.108Z,101929.05
2022-10-17T09:11:05.959Z,101927.77
2022-10-17T09:13:58.667Z,101930.83
2022-10-17T09:16:40.911Z,101930.43
2022-10-17T09:19:12.047Z,101931.08
2022-10-17T09:21:47.463Z,101930.66
2022-10-17T09:24:20.711Z,101932.79
2022-10-17T09:26:48.876Z,101932.83
2022-10-17T09:29:25.510Z,101932.19
2022-10-17T09:32:01.790Z,101934.55
2022-10-17T09:34:32.415Z,101934.04
2022-10-17T09:37:02.167Z,101936.18
2022-10-17T09:39:33.465Z,101932.92
2022-10-17T09:42:03.316Z,101935.58
2022-10-17T09:44:40.663Z,101935.36
2022-10-17T09:47:33.319Z,101936.73
2022-10-17T09:50:02.129Z,101937.55
2022-10-17T09:52:47.956Z,101935.13
2022-10-17T09:55:21.476Z,101937.15
2022-10-17T09:57:56.394Z,101935.54
2022-10-17T10:00:37.047Z,101933.65
2022-10-17T10:03:24.045Z,101933.63
2022-10-17T10:06:04.436Z,101928.56
2022-10-17T10:08:48.890Z,101921.81
2022-10-17T10:11:18.189Z,101920.61
2022-10-17T10:13:48.640Z,101916.94
2022-10-17T10:16:33.513Z,101915.67
2022-10-17T10:19:03.726Z,101915.56
2022-10-17T10:21:37.117Z,101915.13
2022-10-17T10:24:14.371Z,101916.22
2022-10-17T10:26:48.897Z,101913.30
2022-10-17T10:29:26.207Z,101911.13
2022-10-17T10:31:54.208Z,101905.84
2022-10-17T10:34:28.909Z,101906.52
2022-10-17T10:37:02.296Z,101905.69
2022-10-17T10:39:52.784Z,101904.96
2022-10-17T10:42:41.805Z,101901.55
2022-10-17T10:45:29.458Z,101896.08
2022-10-17T10:48:18.677Z,101891.30
2022-10-17T10:50:50.778Z,101890.55
2022-10-17T10:53:36.515Z,101891.38
2022-10-17T10:56:08.279Z,101887.29
2022-10-17T10:58:55.950Z,101885.88
2022-10-17T11:01:39.656Z,101883.05
2022-10-17T11:04:28.218Z,101878.99
2022-10-17T11:07:06.725Z,101877.48
2022-10-17T11:09:50.775Z,101872.52
2022-10-17T11:12:42.080Z,101869.67
2022-10-17T11:15:25.452Z,101863.42
2022-10-17T11:18:11.287Z,101860.36
2022-10-17T11:21:03.884Z,101860.73
2022-10-17T11:24:09.119Z,101855.98
2022-10-17T11:27:01.393Z,101855.76
2022-10-17T11:29:33.396Z,101849.68
2022-10-17T11:32:09.115Z,101848.27
2022-10-17T11:34:48.435Z,101847.98
2022-10-17T11:37:26.595Z,101846.41
2022-10-17T11:40:06.526Z,101843.20
2022-10-17T11:42:40.632Z,101845.42
2022-10-17T11:45:18.863Z,101845.27
2022-10-17T11:47:54.584Z,101840.53
2022-10-17T11:53:19.960Z,101835.36
2022-10-17T11:55:48.586Z,101834.92
2022-10-17T11:58:31.753Z,101833.60
2022-10-17T12:01:08.662Z,101834.84
2022-10-17T12:03:59.225Z,101834.58
2022-10-17T12:06:55.487Z,101831.80
2022-10-17T12:09:35.410Z,101832.04
2022-10-17T12:12:04.942Z,101833.89
2022-10-17T12:14:38.854Z,101830.73
2022-10-17T12:17:25.933Z,101832.15
2022-10-17T12:19:54.186Z,101832.04
2022-10-17T12:22:26.837Z,101827.81
2022-10-17T12:25:04.829Z,101824.29
2022-10-17T12:27:46.105Z,101822.37
2022-10-17T12:30:27.736Z,101822.52
2022-10-17T12:33:12.628Z,101819.48
2022-10-17T12:35:40.744Z,101817.73
2022-10-17T12:38:15.336Z,101823.29
2022-10-17T12:40:48.486Z,101818.21
2022-10-17T12:43:17.039Z,101818.31
2022-10-17T12:46:05.696Z,101818.38
2022-10-17T12:48:36.859Z,101815.78
2022-10-17T12:51:34.401Z,101814.20
2022-10-17T12:54:08.862Z,101813.15
2022-10-17T12:56:51.645Z,101808.94
2022-10-17T12:59:28.662Z,101805.77
2022-10-17T13:02:01.765Z,101802.58
2022-10-17T13:04:31.352Z,101798.16
2022-10-17T13:07:01.407Z,101797.67
2022-10-17T13:09:33.681Z,101794.11
2022-10-17T13:12:05.637Z,101794.36
2022-10-17T13:14:34.260Z,101789.92
2022-10-17T13:17:07.497Z,101790.80
2022-10-17T13:19:44.510Z,101790.55
2022-10-17T13:22:18.505Z,101792.79
2022-10-17T13:24:47.100Z,101791.49
2022-10-17T13:27:26.001Z,101790.61
2022-10-17T13:29:56.536Z,101789.39
2022-10-17T13:32:26.667Z,101787.73
2022-10-17T13:35:22.040Z,101785.50
2022-10-17T13:37:54.174Z,101788.06
2022-10-17T13:40:44.487Z,101780.45
2022-10-17T13:43:22.490Z,101781.80
2022-10-17T13:46:02.332Z,101780.52
2022-10-17T13:48:38.313Z,101775.61
2022-10-17T13:51:10.447Z,101771.63
2022-10-17T13:53:43.926Z,101772.53
2022-10-17T13:56:29.806Z,101771.59
2022-10-17T13:59:16.504Z,101773.27
2022-10-17T14:01:44.893Z,101766.58
2022-10-17T14:04:19.891Z,101767.25
2022-10-17T14:06:51.314Z,101767.19
2022-10-17T14:09:23.589Z,101769.14
2022-10-17T14:12:07.216Z,101770.20
2022-10-17T14:14:58.060Z,101771.86
2022-10-17T14:17:28.904Z,101770.66
2022-10-17T14:20:34.507Z,101770.96
2022-10-17T14:23:53.172Z,101767.02
2022-10-17T14:26:24.128Z,101768.36
2022-10-17T14:29:07.564Z,101770.77
2022-10-17T14:31:37.108Z,101771.66
2022-10-17T14:34:05.725Z,101772.52
2022-10-17T14:36:44.360Z,101768.77
2022-10-17T14:39:21.927Z,101768.48
2022-10-17T14:41:51.720Z,101768.27
2022-10-17T14:44:31.833Z,101767.55
2022-10-17T14:47:30.149Z,101763.31
2022-10-17T14:50:08.103Z,101762.45
2022-10-17T14:52:36.409Z,101764.64
2022-10-17T14:55:23.227Z,101768.36
2022-10-17T14:57:51.369Z,101766.23
2022-10-17T15:00:21.297Z,101762.57
2022-10-17T15:02:50.553Z,101761.77
2022-10-17T15:05:20.347Z,101763.77
2022-10-17T15:07:48.212Z,101763.76
2022-10-17T15:10:26.024Z,101766.69
2022-10-17T15:12:59.073Z,101767.98
2022-10-17T15:15:33.412Z,101770.42
2022-10-17T15:18:01.793Z,101768.30
2022-10-17T15:20:30.510Z,101768.70
2022-10-17T15:23:01.309Z,101769.77
2022-10-17T15:25:30.979Z,101770.61
2022-10-17T15:27:59.045Z,101771.63
2022-10-17T15:30:32.742Z,101771.54
2022-10-17T15:33:01.898Z,101775.64
2022-10-17T15:35:30.669Z,101775.58
2022-10-17T15:37:58.438Z,101775.88
2022-10-17T15:40:29.637Z,101776.52
2022-10-17T15:42:57.973Z,101777.48
2022-10-17T15:45:25.872Z,101779.59
2022-10-17T15:48:04.755Z,101779.89
2022-10-17T15:50:32.740Z,101782.05
2022-10-17T15:53:00.861Z,101784.51
2022-10-17T15:55:28.860Z,101786.52
2022-10-17T15:57:56.651Z,101785.98
2022-10-17T16:00:25.121Z,101784.46
2022-10-17T16:02:53.446Z,101786.34
2022-10-17T16:05:26.348Z,101786.16
2022-10-17T16:07:54.488Z,101788.88
2022-10-17T16:10:23.372Z,101790.92
2022-10-17T16:12:51.781Z,101788.65
2022-10-17T16:15:22.923Z,101792.05
2022-10-17T16:17:52.519Z,101789.72
2022-10-17T16:20:21.352Z,101792.88
2022-10-17T16:22:49.686Z,101792.17
2022-10-17T16:25:23.306Z,101793.94
2022-10-17T16:27:57.129Z,101796.52
2022-10-17T16:30:28.361Z,101795.29
2022-10-17T16:32:56.878Z,101799.14
2022-10-17T16:35:31.701Z,101802.34
2022-10-17T16:38:03.274Z,101804.32
2022-10-17T16:40:31.290Z,101810.61
2022-10-17T16:42:59.162Z,101811.18
2022-10-17T16:45:27.274Z,101809.44
2022-10-17T16:47:55.186Z,101810.85
2022-10-17T16:50:24.951Z,101810.09
2022-10-17T16:52:52.840Z,101811.30
2022-10-17T16:55:20.729Z,101815.08
2022-10-17T16:57:49.222Z,101816.65
2022-10-17T17:00:18.128Z,101820.21
2022-10-17T17:02:49.383Z,101818.88
2022-10-17T17:05:17.564Z,101818.88
2022-10-17T17:07:47.664Z,101821.48
2022-10-17T17:10:16.034Z,101822.39
2022-10-17T17:12:44.049Z,101823.08
2022-10-17T17:15:12.047Z,101823.77
2022-10-17T17:17:55.896Z,101821.80
2022-10-17T17:20:24.211Z,101820.89
2022-10-17T17:22:52.371Z,101822.48
2022-10-17T17:25:22.578Z,101823.66
2022-10-17T17:27:50.966Z,101823.90
2022-10-17T17:30:18.972Z,101823.27
2022-10-17T17:32:47.202Z,101828.02
2022-10-17T17:35:15.011Z,101826.14
2022-10-17T17:37:43.098Z,101828.81
2022-10-17T17:40:11.352Z,101828.36
2022-10-17T17:42:39.443Z,101824.32
2022-10-17T17:45:07.999Z,101831.51
2022-10-17T17:47:36.461Z,101831.08
2022-10-17T17:50:04.656Z,101829.29
2022-10-17T17:52:32.768Z,101828.73
2022-10-17T17:55:01.303Z,101824.57
2022-10-17T17:57:30.138Z,101824.70
2022-10-17T17:59:57.963Z,101826.39
2022-10-17T18:02:25.898Z,101823.30
2022-10-17T18:04:53.747Z,101824.61
2022-10-17T18:07:21.548Z,101824.38
2022-10-17T18:09:51.353Z,101826.21
2022-10-17T18:12:19.450Z,101825.66
2022-10-17T18:14:47.746Z,101827.42
2022-10-17T18:17:15.668Z,101826.17
2022-10-17T18:19:43.960Z,101829.71
2022-10-17T18:22:12.032Z,101828.55
2022-10-17T18:24:39.895Z,101827.02
2022-10-17T18:27:07.904Z,101826.13
2022-10-17T18:29:35.817Z,101823.58
2022-10-17T18:32:04.594Z,101824.02
2022-10-17T18:34:32.742Z,101823.71
2022-10-17T18:37:02.514Z,101824.73
2022-10-17T18:39:30.570Z,101825.55
2022-10-17T18:41:59.119Z,101826.33
2022-10-17T18:44:27.108Z,101829.27
2022-10-17T18:46:58.659Z,101827.95
2022-10-17T18:49:29.630Z,101827.28
2022-10-17T18:51:57.895Z,101828.04
2022-10-17T18:54:25.727Z,101827.29
2022-10-17T18:56:55.426Z,101826.13
2022-10-17T18:59:23.409Z,101824.33
2022-10-17T19:01:51.323Z,101820.20
2022-10-17T19:04:19.181Z,101824.55
2022-10-17T19:06:46.997Z,101825.49
2022-10-17T19:09:16.121Z,101825.27
2022-10-17T19:11:44.177Z,101825.80
2022-10-17T19:14:13.522Z,101827.88
2022-10-17T19:16:46.067Z,101824.08
2022-10-17T19:19:21.489Z,101823.26
2022-10-17T19:21:50.525Z,101821.16
2022-10-17T19:24:24.404Z,101820.29
2022-10-17T19:26:54.883Z,101822.04
2022-10-17T19:29:25.631Z,101822.56
2022-10-17T19:34:27.827Z,101822.69
2022-10-17T19:36:56.123Z,101822.16
2022-10-17T19:39:25.144Z,101820.08
2022-10-17T19:41:53.570Z,101820.79
2022-10-17T19:44:21.425Z,101826.09
2022-10-17T19:46:49.471Z,101828.36
2022-10-17T19:49:17.957Z,101827.48
2022-10-17T19:51:46.017Z,101831.33
2022-10-17T19:54:16.448Z,101829.30
2022-10-17T19:56:44.764Z,101826.23
2022-10-17T19:59:14.085Z,101824.38
2022-10-17T20:01:42.457Z,101828.15
2022-10-17T20:04:12.063Z,101830.48
2022-10-17T20:06:41.392Z,101827.55
2022-10-17T20:09:15.673Z,101828.39
2022-10-17T20:11:45.721Z,101828.66
2022-10-17T20:14:13.617Z,101834.46
2022-10-17T20:16:42.326Z,101836.61
2022-10-17T20:19:12.704Z,101831.20
2022-10-17T20:21:42.601Z,101827.84
2022-10-17T20:24:13.803Z,101823.39
2022-10-17T20:26:41.960Z,101821.87
2022-10-17T20:29:14.489Z,101823.27
2022-10-17T20:31:44.608Z,101820.52
2022-10-17T20:34:15.057Z,101817.70
2022-10-17T20:36:43.277Z,101818.77
2022-10-17T20:39:14.314Z,101818.61
2022-10-17T20:41:43.053Z,101817.59
2022-10-17T20:44:11.645Z,101819.01
2022-10-17T20:46:45.211Z,101814.98
2022-10-17T20:49:21.094Z,101824.80
2022-10-17T20:51:49.206Z,101820.70
2022-10-17T20:54:16.945Z,101818.54
2022-10-17T20:56:44.716Z,101819.66
2022-10-17T20:59:15.121Z,101818.85
2022-10-17T21:01:43.680Z,101820.80
2022-10-17T21:06:59.763Z,101816.88
2022-10-17T21:09:28.059Z,101819.85
2022-10-17T21:11:57.111Z,101819.40
2022-10-17T21:14:25.360Z,101819.84
2022-10-17T21:16:53.438Z,101821.83
2022-10-17T21:19:22.128Z,101819.39
2022-10-17T21:21:50.586Z,101819.59
2022-10-17T21:24:20.940Z,101820.32
2022-10-17T21:26:55.277Z,101820.13
2022-10-17T21:29:24.519Z,101824.38
2022-10-17T21:31:53.009Z,101822.67
2022-10-17T21:34:23.950Z,101822.33
2022-10-17T21:36:52.761Z,101827.94
2022-10-17T21:39:22.025Z,101823.81
2022-10-17T21:41:50.082Z,101823.02
2022-10-17T21:44:24.689Z,101822.69
2022-10-17T21:46:53.954Z,101822.48
2022-10-17T21:49:24.717Z,101820.71
2022-10-17T21:51:52.750Z,101820.88
2022-10-17T21:54:23.177Z,101820.16
2022-10-17T21:56:51.308Z,101821.74
2022-10-17T21:59:19.025Z,101817.69
2022-10-17T22:01:47.315Z,101819.48
2022-10-17T22:04:17.398Z,101817.91
2022-10-17T22:06:47.899Z,101814.98
2022-10-17T22:09:21.779Z,101812.03
2022-10-17T22:11:53.520Z,101812.63
2022-10-17T22:14:22.912Z,101810.77
2022-10-17T22:16:51.353Z,101808.38
2022-10-17T22:19:23.309Z,101808.95
2022-10-17T22:21:51.354Z,101808.85
2022-10-17T22:26:54.074Z,101805.42
2022-10-17T22:29:21.883Z,101804.62
2022-10-17T22:31:50.298Z,101805.25
2022-10-17T22:34:19.248Z,101804.81
2022-10-17T22:36:48.837Z,101806.48
2022-10-17T22:39:17.039Z,101805.88
2022-10-17T22:41:44.788Z,101806.35
2022-10-17T22:44:12.650Z,101805.00
2022-10-17T22:46:40.650Z,101803.33
2022-10-17T22:49:08.562Z,101803.63
2022-10-17T22:51:36.820Z,101801.77
2022-10-17T22:54:04.584Z,101799.42
2022-10-17T22:56:32.968Z,101800.91
2022-10-17T22:59:00.938Z,101800.10
2022-10-17T23:01:28.791Z,101798.42
2022-10-17T23:03:56.975Z,101791.80
2022-10-17T23:06:24.863Z,101790.08
2022-10-17T23:08:52.904Z,101787.61
2022-10-17T23:11:21.085Z,101786.36
2022-10-17T23:13:49.266Z,101786.21
2022-10-17T23:16:17.293Z,101789.08
2022-10-17T23:18:45.518Z,101779.86
2022-10-17T23:21:13.521Z,101779.23
2022-10-17T23:23:42.159Z,101779.35
2022-10-17T23:26:12.947Z,101778.73
2022-10-17T23:28:41.280Z,101780.18
2022-10-17T23:31:20.096Z,101782.01
2022-10-17T23:33:49.375Z,101784.72
2022-10-17T23:36:20.217Z,101783.52
2022-10-17T23:38:49.731Z,101782.30
2022-10-17T23:41:18.609Z,101779.16
2022-10-17T23:43:46.834Z,101778.13
2022-10-17T23:46:14.666Z,101776.20
2022-10-17T23:48:43.488Z,101774.69
2022-10-17T23:51:11.520Z,101775.55
2022-10-17T23:53:40.550Z,101775.25
2022-10-17T23:56:10.713Z,101770.72
2022-10-17T23:58:40.140Z,101766.74
